sensor_id;sensor_type;location;lat;lon;timestamp;P1;durP1;ratioP1;P2;durP2;ratioP2
58946;SDS011;44724;52.332;4.978;2022-07-29T00:00:08;2.70;;;1.30;;
58946;SDS011;44724;52.332;4.978;2022-07-29T00:02:34;3.15;;;1.30;;
58946;SDS011;44724;52.332;4.978;2022-07-29T00:05:00;1.63;;;1.00;;
58946;SDS011;44724;52.332;4.978;2022-07-29T00:07:26;2.88;;;1.10;;
58946;SDS011;44724;52.332;4.978;2022-07-29T00:09:52;2.28;;;1.10;;
58946;SDS011;44724;52.332;4.978;2022-07-29T00:12:18;1.77;;;1.13;;
58946;SDS011;44724;52.332;4.978;2022-07-29T00:14:48;2.50;;;1.08;;
58946;SDS011;44724;52.332;4.978;2022-07-29T00:17:13;1.00;;;0.98;;
58946;SDS011;44724;52.332;4.978;2022-07-29T00:19:39;2.88;;;1.10;;
58946;SDS011;44724;52.332;4.978;2022-07-29T00:22:04;3.55;;;1.35;;
58946;SDS011;44724;52.332;4.978;2022-07-29T00:24:30;1.65;;;1.23;;
58946;SDS011;44724;52.332;4.978;2022-07-29T00:26:55;2.40;;;1.00;;
58946;SDS011;44724;52.332;4.978;2022-07-29T00:29:21;2.13;;;1.00;;
58946;SDS011;44724;52.332;4.978;2022-07-29T00:31:46;2.85;;;1.30;;
58946;SDS011;44724;52.332;4.978;2022-07-29T00:34:11;1.30;;;1.17;;
58946;SDS011;44724;52.332;4.978;2022-07-29T00:36:55;2.05;;;0.90;;
58946;SDS011;44724;52.332;4.978;2022-07-29T00:39:21;2.13;;;1.00;;
58946;SDS011;44724;52.332;4.978;2022-07-29T00:41:47;1.60;;;1.05;;
58946;SDS011;44724;52.332;4.978;2022-07-29T00:44:13;1.38;;;1.05;;
58946;SDS011;44724;52.332;4.978;2022-07-29T00:46:39;3.67;;;1.40;;
58946;SDS011;44724;52.332;4.978;2022-07-29T00:49:04;3.42;;;1.33;;
58946;SDS011;44724;52.332;4.978;2022-07-29T00:51:32;2.78;;;1.02;;
58946;SDS011;44724;52.332;4.978;2022-07-29T00:53:58;1.92;;;1.10;;
58946;SDS011;44724;52.332;4.978;2022-07-29T00:56:24;1.88;;;1.10;;
58946;SDS011;44724;52.332;4.978;2022-07-29T00:58:49;2.40;;;1.25;;
58946;SDS011;44724;52.332;4.978;2022-07-29T01:01:16;5.03;;;1.58;;
58946;SDS011;44724;52.332;4.978;2022-07-29T01:03:41;1.73;;;1.20;;
58946;SDS011;44724;52.332;4.978;2022-07-29T01:06:07;1.90;;;1.17;;
58946;SDS011;44724;52.332;4.978;2022-07-29T01:08:33;3.47;;;1.25;;
58946;SDS011;44724;52.332;4.978;2022-07-29T01:10:59;2.50;;;1.08;;
58946;SDS011;44724;52.332;4.978;2022-07-29T01:13:26;2.53;;;1.20;;
58946;SDS011;44724;52.332;4.978;2022-07-29T01:15:55;2.97;;;1.30;;
58946;SDS011;44724;52.332;4.978;2022-07-29T01:18:27;2.22;;;1.20;;
58946;SDS011;44724;52.332;4.978;2022-07-29T01:26:45;1.90;;;1.20;;
58946;SDS011;44724;52.332;4.978;2022-07-29T01:31:48;1.73;;;1.27;;
58946;SDS011;44724;52.332;4.978;2022-07-29T01:34:21;7.45;;;2.05;;
58946;SDS011;44724;52.332;4.978;2022-07-29T01:36:55;1.35;;;1.20;;
58946;SDS011;44724;52.332;4.978;2022-07-29T01:39:32;2.58;;;1.30;;
58946;SDS011;44724;52.332;4.978;2022-07-29T01:42:10;2.70;;;1.10;;
58946;SDS011;44724;52.332;4.978;2022-07-29T01:44:57;3.08;;;1.52;;
58946;SDS011;44724;52.332;4.978;2022-07-29T01:47:24;2.00;;;1.30;;
58946;SDS011;44724;52.332;4.978;2022-07-29T01:50:04;4.28;;;2.58;;
58946;SDS011;44724;52.332;4.978;2022-07-29T01:52:37;4.28;;;2.20;;
58946;SDS011;44724;52.332;4.978;2022-07-29T01:55:09;1.92;;;1.38;;
58946;SDS011;44724;52.332;4.978;2022-07-29T01:57:38;1.83;;;1.48;;
58946;SDS011;44724;52.332;4.978;2022-07-29T02:00:07;2.08;;;1.80;;
58946;SDS011;44724;52.332;4.978;2022-07-29T02:02:41;2.90;;;1.60;;
58946;SDS011;44724;52.332;4.978;2022-07-29T02:05:09;3.10;;;1.60;;
58946;SDS011;44724;52.332;4.978;2022-07-29T02:07:37;1.40;;;1.30;;
58946;SDS011;44724;52.332;4.978;2022-07-29T02:10:05;2.45;;;1.55;;
58946;SDS011;44724;52.332;4.978;2022-07-29T02:12:32;3.55;;;1.70;;
58946;SDS011;44724;52.332;4.978;2022-07-29T02:14:59;2.95;;;1.83;;
58946;SDS011;44724;52.332;4.978;2022-07-29T02:17:27;2.38;;;1.90;;
58946;SDS011;44724;52.332;4.978;2022-07-29T02:19:59;1.85;;;1.70;;
58946;SDS011;44724;52.332;4.978;2022-07-29T02:22:27;2.05;;;1.58;;
58946;SDS011;44724;52.332;4.978;2022-07-29T02:24:55;2.95;;;1.50;;
58946;SDS011;44724;52.332;4.978;2022-07-29T02:27:22;3.08;;;1.88;;
58946;SDS011;44724;52.332;4.978;2022-07-29T02:29:48;2.97;;;1.50;;
58946;SDS011;44724;52.332;4.978;2022-07-29T02:32:18;2.05;;;1.50;;
58946;SDS011;44724;52.332;4.978;2022-07-29T02:34:46;1.67;;;1.40;;
58946;SDS011;44724;52.332;4.978;2022-07-29T02:37:12;3.05;;;1.45;;
58946;SDS011;44724;52.332;4.978;2022-07-29T02:39:40;3.50;;;1.65;;
58946;SDS011;44724;52.332;4.978;2022-07-29T02:42:10;2.67;;;1.58;;
58946;SDS011;44724;52.332;4.978;2022-07-29T02:44:38;3.40;;;1.45;;
58946;SDS011;44724;52.332;4.978;2022-07-29T02:47:10;3.78;;;1.42;;
58946;SDS011;44724;52.332;4.978;2022-07-29T02:52:26;7.43;;;2.03;;
58946;SDS011;44724;52.332;4.978;2022-07-29T02:55:01;4.43;;;1.63;;
58946;SDS011;44724;52.332;4.978;2022-07-29T03:00:18;2.00;;;1.33;;
58946;SDS011;44724;52.332;4.978;2022-07-29T03:02:46;2.35;;;1.40;;
58946;SDS011;44724;52.332;4.978;2022-07-29T03:05:18;1.50;;;1.40;;
58946;SDS011;44724;52.332;4.978;2022-07-29T03:07:46;3.22;;;1.92;;
58946;SDS011;44724;52.332;4.978;2022-07-29T03:10:16;1.70;;;1.30;;
58946;SDS011;44724;52.332;4.978;2022-07-29T03:12:41;1.65;;;1.30;;
58946;SDS011;44724;52.332;4.978;2022-07-29T03:15:08;2.17;;;1.33;;
58946;SDS011;44724;52.332;4.978;2022-07-29T03:17:34;3.63;;;1.55;;
58946;SDS011;44724;52.332;4.978;2022-07-29T03:20:01;2.45;;;1.50;;
58946;SDS011;44724;52.332;4.978;2022-07-29T03:22:27;3.97;;;2.40;;
58946;SDS011;44724;52.332;4.978;2022-07-29T03:24:53;2.80;;;1.35;;
58946;SDS011;44724;52.332;4.978;2022-07-29T03:27:18;1.90;;;1.35;;
58946;SDS011;44724;52.332;4.978;2022-07-29T03:29:44;2.08;;;1.30;;
58946;SDS011;44724;52.332;4.978;2022-07-29T03:32:09;1.35;;;1.25;;
58946;SDS011;44724;52.332;4.978;2022-07-29T03:34:35;2.53;;;1.33;;
58946;SDS011;44724;52.332;4.978;2022-07-29T03:37:02;1.85;;;1.48;;
58946;SDS011;44724;52.332;4.978;2022-07-29T03:39:38;2.15;;;1.50;;
58946;SDS011;44724;52.332;4.978;2022-07-29T03:42:21;2.70;;;1.38;;
58946;SDS011;44724;52.332;4.978;2022-07-29T03:45:00;3.40;;;1.20;;
58946;SDS011;44724;52.332;4.978;2022-07-29T03:47:42;4.90;;;1.60;;
58946;SDS011;44724;52.332;4.978;2022-07-29T03:50:30;3.25;;;1.60;;
58946;SDS011;44724;52.332;4.978;2022-07-29T03:52:58;2.42;;;1.38;;
58946;SDS011;44724;52.332;4.978;2022-07-29T03:55:25;3.03;;;1.33;;
58946;SDS011;44724;52.332;4.978;2022-07-29T03:57:53;2.25;;;1.38;;
58946;SDS011;44724;52.332;4.978;2022-07-29T04:00:20;2.80;;;1.60;;
58946;SDS011;44724;52.332;4.978;2022-07-29T04:02:47;2.30;;;1.63;;
58946;SDS011;44724;52.332;4.978;2022-07-29T04:05:16;2.65;;;1.50;;
58946;SDS011;44724;52.332;4.978;2022-07-29T04:07:45;2.35;;;1.30;;
58946;SDS011;44724;52.332;4.978;2022-07-29T04:10:12;1.85;;;1.33;;
58946;SDS011;44724;52.332;4.978;2022-07-29T04:12:37;4.97;;;1.70;;
58946;SDS011;44724;52.332;4.978;2022-07-29T04:15:03;3.60;;;1.50;;
58946;SDS011;44724;52.332;4.978;2022-07-29T04:17:29;2.67;;;1.42;;
58946;SDS011;44724;52.332;4.978;2022-07-29T04:19:54;3.35;;;1.50;;
58946;SDS011;44724;52.332;4.978;2022-07-29T04:22:20;3.05;;;1.48;;
58946;SDS011;44724;52.332;4.978;2022-07-29T04:24:45;2.58;;;1.48;;
58946;SDS011;44724;52.332;4.978;2022-07-29T04:27:11;2.97;;;1.40;;
58946;SDS011;44724;52.332;4.978;2022-07-29T04:29:36;3.70;;;2.03;;
58946;SDS011;44724;52.332;4.978;2022-07-29T04:32:01;3.17;;;1.42;;
58946;SDS011;44724;52.332;4.978;2022-07-29T04:34:27;2.25;;;1.42;;
58946;SDS011;44724;52.332;4.978;2022-07-29T04:36:52;1.92;;;1.50;;
58946;SDS011;44724;52.332;4.978;2022-07-29T04:39:18;5.47;;;2.00;;
58946;SDS011;44724;52.332;4.978;2022-07-29T04:41:43;4.22;;;1.50;;
58946;SDS011;44724;52.332;4.978;2022-07-29T04:44:09;1.58;;;1.48;;
58946;SDS011;44724;52.332;4.978;2022-07-29T04:46:34;1.50;;;1.40;;
58946;SDS011;44724;52.332;4.978;2022-07-29T04:49:00;5.40;;;1.52;;
58946;SDS011;44724;52.332;4.978;2022-07-29T04:51:26;2.40;;;1.60;;
58946;SDS011;44724;52.332;4.978;2022-07-29T04:53:51;5.32;;;1.70;;
58946;SDS011;44724;52.332;4.978;2022-07-29T04:56:17;4.32;;;1.55;;
58946;SDS011;44724;52.332;4.978;2022-07-29T04:58:42;3.25;;;1.65;;
58946;SDS011;44724;52.332;4.978;2022-07-29T05:01:07;2.75;;;1.42;;
58946;SDS011;44724;52.332;4.978;2022-07-29T05:03:33;3.35;;;1.98;;
58946;SDS011;44724;52.332;4.978;2022-07-29T05:05:58;5.20;;;1.50;;
58946;SDS011;44724;52.332;4.978;2022-07-29T05:08:24;2.50;;;1.80;;
58946;SDS011;44724;52.332;4.978;2022-07-29T05:10:49;6.03;;;1.60;;
58946;SDS011;44724;52.332;4.978;2022-07-29T05:13:14;1.88;;;1.30;;
58946;SDS011;44724;52.332;4.978;2022-07-29T05:15:41;2.72;;;1.23;;
58946;SDS011;44724;52.332;4.978;2022-07-29T05:18:06;2.78;;;1.50;;
58946;SDS011;44724;52.332;4.978;2022-07-29T05:20:31;1.52;;;1.30;;
58946;SDS011;44724;52.332;4.978;2022-07-29T05:22:58;1.80;;;1.55;;
58946;SDS011;44724;52.332;4.978;2022-07-29T05:25:25;3.60;;;1.23;;
58946;SDS011;44724;52.332;4.978;2022-07-29T05:27:51;2.20;;;1.65;;
58946;SDS011;44724;52.332;4.978;2022-07-29T05:30:17;2.70;;;1.35;;
58946;SDS011;44724;52.332;4.978;2022-07-29T05:32:43;4.05;;;1.52;;
58946;SDS011;44724;52.332;4.978;2022-07-29T05:35:09;3.13;;;1.70;;
58946;SDS011;44724;52.332;4.978;2022-07-29T05:37:34;4.00;;;1.70;;
58946;SDS011;44724;52.332;4.978;2022-07-29T05:40:00;1.50;;;1.40;;
58946;SDS011;44724;52.332;4.978;2022-07-29T05:42:26;3.47;;;1.67;;
58946;SDS011;44724;52.332;4.978;2022-07-29T05:44:51;2.95;;;1.50;;
58946;SDS011;44724;52.332;4.978;2022-07-29T05:47:17;2.80;;;1.55;;
58946;SDS011;44724;52.332;4.978;2022-07-29T05:49:43;4.50;;;1.58;;
58946;SDS011;44724;52.332;4.978;2022-07-29T05:52:08;2.15;;;1.45;;
58946;SDS011;44724;52.332;4.978;2022-07-29T05:54:34;4.38;;;1.58;;
58946;SDS011;44724;52.332;4.978;2022-07-29T05:57:00;6.90;;;1.60;;
58946;SDS011;44724;52.332;4.978;2022-07-29T05:59:26;2.53;;;1.35;;
58946;SDS011;44724;52.332;4.978;2022-07-29T06:01:51;2.00;;;1.50;;
58946;SDS011;44724;52.332;4.978;2022-07-29T06:04:17;2.33;;;1.60;;
58946;SDS011;44724;52.332;4.978;2022-07-29T06:06:42;3.17;;;1.38;;
58946;SDS011;44724;52.332;4.978;2022-07-29T06:09:07;2.55;;;1.60;;
58946;SDS011;44724;52.332;4.978;2022-07-29T06:11:33;2.63;;;1.67;;
58946;SDS011;44724;52.332;4.978;2022-07-29T06:13:58;2.78;;;1.40;;
58946;SDS011;44724;52.332;4.978;2022-07-29T06:16:23;3.65;;;1.50;;
58946;SDS011;44724;52.332;4.978;2022-07-29T06:18:49;3.55;;;1.63;;
58946;SDS011;44724;52.332;4.978;2022-07-29T06:21:14;2.40;;;1.42;;
58946;SDS011;44724;52.332;4.978;2022-07-29T06:23:40;1.70;;;1.60;;
58946;SDS011;44724;52.332;4.978;2022-07-29T06:26:05;2.85;;;1.50;;
58946;SDS011;44724;52.332;4.978;2022-07-29T06:28:31;1.25;;;1.15;;
58946;SDS011;44724;52.332;4.978;2022-07-29T06:30:57;2.60;;;1.42;;
58946;SDS011;44724;52.332;4.978;2022-07-29T06:33:23;2.58;;;1.42;;
58946;SDS011;44724;52.332;4.978;2022-07-29T06:35:48;3.20;;;2.25;;
58946;SDS011;44724;52.332;4.978;2022-07-29T06:38:14;2.78;;;1.55;;
58946;SDS011;44724;52.332;4.978;2022-07-29T06:40:40;3.05;;;1.45;;
58946;SDS011;44724;52.332;4.978;2022-07-29T06:43:25;5.22;;;1.75;;
58946;SDS011;44724;52.332;4.978;2022-07-29T06:46:05;5.30;;;1.75;;
58946;SDS011;44724;52.332;4.978;2022-07-29T06:48:32;1.58;;;1.40;;
58946;SDS011;44724;52.332;4.978;2022-07-29T06:50:58;2.13;;;1.30;;
58946;SDS011;44724;52.332;4.978;2022-07-29T06:53:25;2.15;;;1.40;;
58946;SDS011;44724;52.332;4.978;2022-07-29T06:55:51;3.00;;;1.60;;
58946;SDS011;44724;52.332;4.978;2022-07-29T06:58:16;2.30;;;1.42;;
58946;SDS011;44724;52.332;4.978;2022-07-29T07:00:53;2.67;;;1.70;;
58946;SDS011;44724;52.332;4.978;2022-07-29T07:03:19;2.45;;;1.30;;
58946;SDS011;44724;52.332;4.978;2022-07-29T07:05:45;5.63;;;1.60;;
58946;SDS011;44724;52.332;4.978;2022-07-29T07:08:11;5.97;;;2.15;;
58946;SDS011;44724;52.332;4.978;2022-07-29T07:10:37;1.92;;;1.35;;
58946;SDS011;44724;52.332;4.978;2022-07-29T07:13:03;3.78;;;1.38;;
58946;SDS011;44724;52.332;4.978;2022-07-29T07:15:29;4.43;;;2.15;;
58946;SDS011;44724;52.332;4.978;2022-07-29T07:17:55;2.38;;;1.65;;
58946;SDS011;44724;52.332;4.978;2022-07-29T07:20:20;4.65;;;1.58;;
58946;SDS011;44724;52.332;4.978;2022-07-29T07:22:45;3.47;;;2.30;;
58946;SDS011;44724;52.332;4.978;2022-07-29T07:25:11;5.20;;;1.52;;
58946;SDS011;44724;52.332;4.978;2022-07-29T07:27:37;5.47;;;1.90;;
58946;SDS011;44724;52.332;4.978;2022-07-29T07:30:06;2.95;;;1.98;;
58946;SDS011;44724;52.332;4.978;2022-07-29T07:32:33;2.92;;;1.60;;
58946;SDS011;44724;52.332;4.978;2022-07-29T07:34:59;5.07;;;1.63;;
58946;SDS011;44724;52.332;4.978;2022-07-29T07:37:25;4.45;;;1.67;;
58946;SDS011;44724;52.332;4.978;2022-07-29T07:39:51;2.88;;;1.85;;
58946;SDS011;44724;52.332;4.978;2022-07-29T07:42:18;2.45;;;1.83;;
58946;SDS011;44724;52.332;4.978;2022-07-29T07:44:43;3.47;;;1.77;;
58946;SDS011;44724;52.332;4.978;2022-07-29T07:47:10;5.25;;;1.98;;
58946;SDS011;44724;52.332;4.978;2022-07-29T07:49:39;3.78;;;2.10;;
58946;SDS011;44724;52.332;4.978;2022-07-29T07:52:04;3.03;;;1.80;;
58946;SDS011;44724;52.332;4.978;2022-07-29T07:54:30;4.72;;;1.60;;
58946;SDS011;44724;52.332;4.978;2022-07-29T07:56:56;2.72;;;1.60;;
58946;SDS011;44724;52.332;4.978;2022-07-29T07:59:21;3.10;;;1.80;;
58946;SDS011;44724;52.332;4.978;2022-07-29T08:01:47;3.13;;;2.03;;
58946;SDS011;44724;52.332;4.978;2022-07-29T08:04:12;3.17;;;2.10;;
58946;SDS011;44724;52.332;4.978;2022-07-29T08:06:37;4.68;;;1.77;;
58946;SDS011;44724;52.332;4.978;2022-07-29T08:09:03;3.15;;;1.73;;
58946;SDS011;44724;52.332;4.978;2022-07-29T08:11:29;2.95;;;1.70;;
58946;SDS011;44724;52.332;4.978;2022-07-29T08:13:54;25.20;;;3.78;;
58946;SDS011;44724;52.332;4.978;2022-07-29T08:16:20;3.58;;;1.95;;
58946;SDS011;44724;52.332;4.978;2022-07-29T08:18:45;3.95;;;2.13;;
58946;SDS011;44724;52.332;4.978;2022-07-29T08:21:12;3.78;;;1.90;;
58946;SDS011;44724;52.332;4.978;2022-07-29T08:23:39;5.47;;;2.28;;
58946;SDS011;44724;52.332;4.978;2022-07-29T08:26:10;4.88;;;2.20;;
58946;SDS011;44724;52.332;4.978;2022-07-29T08:28:39;2.00;;;1.80;;
58946;SDS011;44724;52.332;4.978;2022-07-29T08:31:06;5.68;;;2.42;;
58946;SDS011;44724;52.332;4.978;2022-07-29T08:33:32;4.13;;;2.35;;
58946;SDS011;44724;52.332;4.978;2022-07-29T08:35:58;5.20;;;2.03;;
58946;SDS011;44724;52.332;4.978;2022-07-29T08:38:24;5.43;;;2.17;;
58946;SDS011;44724;52.332;4.978;2022-07-29T08:40:51;7.25;;;2.35;;
58946;SDS011;44724;52.332;4.978;2022-07-29T08:43:17;3.40;;;2.20;;
58946;SDS011;44724;52.332;4.978;2022-07-29T08:45:46;4.20;;;2.60;;
58946;SDS011;44724;52.332;4.978;2022-07-29T08:48:14;2.63;;;2.00;;
58946;SDS011;44724;52.332;4.978;2022-07-29T08:50:42;2.92;;;2.00;;
58946;SDS011;44724;52.332;4.978;2022-07-29T08:53:12;2.33;;;2.03;;
58946;SDS011;44724;52.332;4.978;2022-07-29T08:55:40;3.65;;;2.50;;
58946;SDS011;44724;52.332;4.978;2022-07-29T08:58:11;3.63;;;2.40;;
58946;SDS011;44724;52.332;4.978;2022-07-29T09:00:39;4.70;;;3.10;;
58946;SDS011;44724;52.332;4.978;2022-07-29T09:03:07;3.22;;;2.58;;
58946;SDS011;44724;52.332;4.978;2022-07-29T09:05:37;4.53;;;2.67;;
58946;SDS011;44724;52.332;4.978;2022-07-29T09:08:06;3.15;;;2.42;;
58946;SDS011;44724;52.332;4.978;2022-07-29T09:10:32;3.15;;;2.35;;
58946;SDS011;44724;52.332;4.978;2022-07-29T09:12:57;4.68;;;2.50;;
58946;SDS011;44724;52.332;4.978;2022-07-29T09:15:23;2.70;;;2.50;;
58946;SDS011;44724;52.332;4.978;2022-07-29T09:17:48;4.72;;;2.50;;
58946;SDS011;44724;52.332;4.978;2022-07-29T09:20:15;4.90;;;2.88;;
58946;SDS011;44724;52.332;4.978;2022-07-29T09:22:42;6.40;;;3.10;;
58946;SDS011;44724;52.332;4.978;2022-07-29T09:25:08;3.97;;;2.40;;
58946;SDS011;44724;52.332;4.978;2022-07-29T09:27:37;4.47;;;2.50;;
58946;SDS011;44724;52.332;4.978;2022-07-29T09:30:03;5.35;;;3.30;;
58946;SDS011;44724;52.332;4.978;2022-07-29T09:32:31;13.98;;;3.58;;
58946;SDS011;44724;52.332;4.978;2022-07-29T09:35:13;5.05;;;2.85;;
58946;SDS011;44724;52.332;4.978;2022-07-29T09:37:43;4.93;;;2.95;;
58946;SDS011;44724;52.332;4.978;2022-07-29T09:40:17;5.35;;;3.03;;
58946;SDS011;44724;52.332;4.978;2022-07-29T09:42:44;3.80;;;3.20;;
58946;SDS011;44724;52.332;4.978;2022-07-29T09:45:10;5.07;;;2.97;;
58946;SDS011;44724;52.332;4.978;2022-07-29T09:47:46;5.18;;;2.83;;
58946;SDS011;44724;52.332;4.978;2022-07-29T09:50:14;4.15;;;3.10;;
58946;SDS011;44724;52.332;4.978;2022-07-29T09:52:47;3.38;;;2.80;;
58946;SDS011;44724;52.332;4.978;2022-07-29T09:55:14;4.13;;;3.40;;
58946;SDS011;44724;52.332;4.978;2022-07-29T09:57:40;4.38;;;3.20;;
58946;SDS011;44724;52.332;4.978;2022-07-29T10:00:10;4.45;;;3.17;;
58946;SDS011;44724;52.332;4.978;2022-07-29T10:02:42;14.77;;;3.38;;
58946;SDS011;44724;52.332;4.978;2022-07-29T10:05:18;4.35;;;3.20;;
58946;SDS011;44724;52.332;4.978;2022-07-29T10:07:49;3.38;;;2.72;;
58946;SDS011;44724;52.332;4.978;2022-07-29T10:10:29;4.70;;;3.10;;
58946;SDS011;44724;52.332;4.978;2022-07-29T10:13:09;3.15;;;2.85;;
58946;SDS011;44724;52.332;4.978;2022-07-29T10:15:37;5.10;;;3.00;;
58946;SDS011;44724;52.332;4.978;2022-07-29T10:18:06;4.07;;;2.97;;
58946;SDS011;44724;52.332;4.978;2022-07-29T10:20:32;4.15;;;2.95;;
58946;SDS011;44724;52.332;4.978;2022-07-29T10:22:58;4.60;;;3.05;;
58946;SDS011;44724;52.332;4.978;2022-07-29T10:25:24;5.25;;;2.80;;
58946;SDS011;44724;52.332;4.978;2022-07-29T10:27:50;4.65;;;2.67;;
58946;SDS011;44724;52.332;4.978;2022-07-29T10:30:17;7.20;;;3.00;;
58946;SDS011;44724;52.332;4.978;2022-07-29T10:33:14;4.90;;;3.30;;
58946;SDS011;44724;52.332;4.978;2022-07-29T10:35:59;4.22;;;2.88;;
58946;SDS011;44724;52.332;4.978;2022-07-29T10:41:47;4.35;;;2.92;;
58946;SDS011;44724;52.332;4.978;2022-07-29T10:44:16;5.45;;;3.35;;
58946;SDS011;44724;52.332;4.978;2022-07-29T10:46:43;5.25;;;2.70;;
58946;SDS011;44724;52.332;4.978;2022-07-29T10:49:18;3.05;;;2.70;;
58946;SDS011;44724;52.332;4.978;2022-07-29T10:52:02;4.25;;;2.90;;
58946;SDS011;44724;52.332;4.978;2022-07-29T10:57:10;4.63;;;3.50;;
58946;SDS011;44724;52.332;4.978;2022-07-29T10:59:39;6.20;;;3.00;;
58946;SDS011;44724;52.332;4.978;2022-07-29T11:05:22;3.75;;;2.60;;
58946;SDS011;44724;52.332;4.978;2022-07-29T11:10:52;4.68;;;3.15;;
58946;SDS011;44724;52.332;4.978;2022-07-29T11:16:11;4.10;;;3.30;;
58946;SDS011;44724;52.332;4.978;2022-07-29T11:18:46;6.20;;;3.35;;
58946;SDS011;44724;52.332;4.978;2022-07-29T11:21:37;5.18;;;3.42;;
58946;SDS011;44724;52.332;4.978;2022-07-29T11:24:17;3.67;;;3.30;;
58946;SDS011;44724;52.332;4.978;2022-07-29T11:29:31;4.03;;;3.22;;
58946;SDS011;44724;52.332;4.978;2022-07-29T11:32:07;5.60;;;3.17;;
58946;SDS011;44724;52.332;4.978;2022-07-29T11:34:37;4.53;;;3.65;;
58946;SDS011;44724;52.332;4.978;2022-07-29T11:39:38;5.55;;;3.35;;
58946;SDS011;44724;52.332;4.978;2022-07-29T11:47:26;6.93;;;3.28;;
58946;SDS011;44724;52.332;4.978;2022-07-29T11:49:56;4.25;;;2.88;;
58946;SDS011;44724;52.332;4.978;2022-07-29T11:52:22;4.82;;;3.00;;
58946;SDS011;44724;52.332;4.978;2022-07-29T11:54:48;4.70;;;3.33;;
58946;SDS011;44724;52.332;4.978;2022-07-29T11:57:18;6.05;;;3.53;;
58946;SDS011;44724;52.332;4.978;2022-07-29T11:59:46;6.25;;;3.40;;
58946;SDS011;44724;52.332;4.978;2022-07-29T12:02:13;6.85;;;3.50;;
58946;SDS011;44724;52.332;4.978;2022-07-29T12:04:51;4.05;;;3.22;;
58946;SDS011;44724;52.332;4.978;2022-07-29T12:07:25;4.45;;;3.45;;
58946;SDS011;44724;52.332;4.978;2022-07-29T12:09:52;5.07;;;2.80;;
58946;SDS011;44724;52.332;4.978;2022-07-29T12:12:19;4.82;;;3.55;;
58946;SDS011;44724;52.332;4.978;2022-07-29T12:14:45;7.70;;;4.28;;
58946;SDS011;44724;52.332;4.978;2022-07-29T12:17:30;6.68;;;3.92;;
58946;SDS011;44724;52.332;4.978;2022-07-29T12:19:58;7.10;;;4.15;;
58946;SDS011;44724;52.332;4.978;2022-07-29T12:22:25;4.65;;;4.15;;
58946;SDS011;44724;52.332;4.978;2022-07-29T12:24:52;5.30;;;3.63;;
58946;SDS011;44724;52.332;4.978;2022-07-29T12:27:18;6.40;;;4.68;;
58946;SDS011;44724;52.332;4.978;2022-07-29T12:29:44;5.80;;;4.22;;
58946;SDS011;44724;52.332;4.978;2022-07-29T12:32:19;4.60;;;3.60;;
58946;SDS011;44724;52.332;4.978;2022-07-29T12:34:45;4.85;;;3.70;;
58946;SDS011;44724;52.332;4.978;2022-07-29T12:37:10;4.88;;;4.40;;
58946;SDS011;44724;52.332;4.978;2022-07-29T12:39:36;5.55;;;4.15;;
58946;SDS011;44724;52.332;4.978;2022-07-29T12:42:10;6.18;;;4.50;;
58946;SDS011;44724;52.332;4.978;2022-07-29T12:44:46;5.05;;;3.42;;
58946;SDS011;44724;52.332;4.978;2022-07-29T12:47:12;5.63;;;3.55;;
58946;SDS011;44724;52.332;4.978;2022-07-29T12:49:38;5.00;;;3.72;;
58946;SDS011;44724;52.332;4.978;2022-07-29T12:54:50;5.53;;;3.30;;
58946;SDS011;44724;52.332;4.978;2022-07-29T12:57:16;5.82;;;3.63;;
58946;SDS011;44724;52.332;4.978;2022-07-29T12:59:41;4.43;;;3.95;;
58946;SDS011;44724;52.332;4.978;2022-07-29T13:02:07;5.57;;;3.70;;
58946;SDS011;44724;52.332;4.978;2022-07-29T13:04:54;7.07;;;3.63;;
58946;SDS011;44724;52.332;4.978;2022-07-29T13:07:28;4.90;;;3.45;;
58946;SDS011;44724;52.332;4.978;2022-07-29T13:10:09;6.30;;;3.30;;
58946;SDS011;44724;52.332;4.978;2022-07-29T13:12:34;4.70;;;3.38;;
58946;SDS011;44724;52.332;4.978;2022-07-29T13:15:00;6.15;;;3.08;;
58946;SDS011;44724;52.332;4.978;2022-07-29T13:17:41;5.60;;;3.63;;
58946;SDS011;44724;52.332;4.978;2022-07-29T13:20:09;7.45;;;3.75;;
58946;SDS011;44724;52.332;4.978;2022-07-29T13:22:39;5.40;;;3.20;;
58946;SDS011;44724;52.332;4.978;2022-07-29T13:25:07;4.25;;;2.92;;
58946;SDS011;44724;52.332;4.978;2022-07-29T13:27:35;4.50;;;2.92;;
58946;SDS011;44724;52.332;4.978;2022-07-29T13:30:07;4.10;;;2.58;;
58946;SDS011;44724;52.332;4.978;2022-07-29T13:32:36;7.25;;;2.90;;
58946;SDS011;44724;52.332;4.978;2022-07-29T13:35:04;4.90;;;3.33;;
58946;SDS011;44724;52.332;4.978;2022-07-29T13:37:32;4.85;;;3.30;;
58946;SDS011;44724;52.332;4.978;2022-07-29T13:40:00;5.45;;;3.03;;
58946;SDS011;44724;52.332;4.978;2022-07-29T13:42:28;4.93;;;2.78;;
58946;SDS011;44724;52.332;4.978;2022-07-29T13:44:53;3.42;;;2.90;;
58946;SDS011;44724;52.332;4.978;2022-07-29T13:47:19;5.45;;;3.10;;
58946;SDS011;44724;52.332;4.978;2022-07-29T13:49:46;5.28;;;2.97;;
58946;SDS011;44724;52.332;4.978;2022-07-29T13:52:11;3.88;;;2.70;;
58946;SDS011;44724;52.332;4.978;2022-07-29T13:54:36;5.45;;;2.42;;
58946;SDS011;44724;52.332;4.978;2022-07-29T13:57:06;6.65;;;3.17;;
58946;SDS011;44724;52.332;4.978;2022-07-29T13:59:32;3.20;;;2.90;;
58946;SDS011;44724;52.332;4.978;2022-07-29T14:01:58;4.47;;;2.72;;
58946;SDS011;44724;52.332;4.978;2022-07-29T14:04:24;5.10;;;2.90;;
58946;SDS011;44724;52.332;4.978;2022-07-29T14:06:50;4.53;;;3.35;;
58946;SDS011;44724;52.332;4.978;2022-07-29T14:09:15;4.70;;;3.20;;
58946;SDS011;44724;52.332;4.978;2022-07-29T14:11:41;4.15;;;2.50;;
58946;SDS011;44724;52.332;4.978;2022-07-29T14:14:06;4.07;;;2.80;;
58946;SDS011;44724;52.332;4.978;2022-07-29T14:16:32;6.95;;;2.90;;
58946;SDS011;44724;52.332;4.978;2022-07-29T14:18:58;3.80;;;2.60;;
58946;SDS011;44724;52.332;4.978;2022-07-29T14:21:23;3.58;;;2.60;;
58946;SDS011;44724;52.332;4.978;2022-07-29T14:23:49;5.20;;;2.58;;
58946;SDS011;44724;52.332;4.978;2022-07-29T14:26:14;3.92;;;2.17;;
58946;SDS011;44724;52.332;4.978;2022-07-29T14:28:40;5.03;;;2.38;;
58946;SDS011;44724;52.332;4.978;2022-07-29T14:31:05;3.25;;;2.60;;
58946;SDS011;44724;52.332;4.978;2022-07-29T14:33:30;5.22;;;2.60;;
58946;SDS011;44724;52.332;4.978;2022-07-29T14:35:56;3.83;;;2.70;;
58946;SDS011;44724;52.332;4.978;2022-07-29T14:38:21;5.47;;;3.50;;
58946;SDS011;44724;52.332;4.978;2022-07-29T14:40:47;4.18;;;2.50;;
58946;SDS011;44724;52.332;4.978;2022-07-29T14:43:13;3.95;;;2.90;;
58946;SDS011;44724;52.332;4.978;2022-07-29T14:45:39;8.18;;;3.47;;
58946;SDS011;44724;52.332;4.978;2022-07-29T14:48:05;4.97;;;2.88;;
58946;SDS011;44724;52.332;4.978;2022-07-29T14:50:30;3.28;;;2.95;;
58946;SDS011;44724;52.332;4.978;2022-07-29T14:53:01;4.78;;;3.15;;
58946;SDS011;44724;52.332;4.978;2022-07-29T14:55:26;4.63;;;2.38;;
58946;SDS011;44724;52.332;4.978;2022-07-29T14:57:52;5.68;;;2.83;;
58946;SDS011;44724;52.332;4.978;2022-07-29T15:00:18;4.40;;;2.60;;
58946;SDS011;44724;52.332;4.978;2022-07-29T15:02:47;4.45;;;2.80;;
58946;SDS011;44724;52.332;4.978;2022-07-29T15:05:13;5.18;;;2.70;;
58946;SDS011;44724;52.332;4.978;2022-07-29T15:07:39;4.30;;;3.03;;
58946;SDS011;44724;52.332;4.978;2022-07-29T15:10:07;6.65;;;2.72;;
58946;SDS011;44724;52.332;4.978;2022-07-29T15:12:33;4.18;;;2.80;;
58946;SDS011;44724;52.332;4.978;2022-07-29T15:14:58;4.05;;;2.67;;
58946;SDS011;44724;52.332;4.978;2022-07-29T15:17:24;3.90;;;2.35;;
58946;SDS011;44724;52.332;4.978;2022-07-29T15:19:50;6.38;;;2.40;;
58946;SDS011;44724;52.332;4.978;2022-07-29T15:22:16;4.35;;;2.90;;
58946;SDS011;44724;52.332;4.978;2022-07-29T15:24:41;4.63;;;2.58;;
58946;SDS011;44724;52.332;4.978;2022-07-29T15:27:07;3.72;;;2.45;;
58946;SDS011;44724;52.332;4.978;2022-07-29T15:29:32;5.07;;;2.10;;
58946;SDS011;44724;52.332;4.978;2022-07-29T15:31:58;2.67;;;2.13;;
58946;SDS011;44724;52.332;4.978;2022-07-29T15:34:23;4.85;;;2.42;;